Time;durP1;ratioP1;P1;durP2;ratioP2;P2;SDS_P1;SDS_P2;PMS_P1;PMS_P2;Temp;Humidity;BMP_temperature;BMP_pressure;BME280_temperature;BME280_humidity;BME280_pressure;Samples;Min_cycle;Max_cycle;Signal;HPM_P1;HPM_P2
2021/05/21 13:59:50;;;;;;;1.60;0.40;;;11.80;99.90;;;;;;6174542;22;20043;-94
2021/05/21 14:02:28;;;;;;;0.45;0.40;;;11.90;99.90;;;;;;6246273;22;20008;-93
2021/05/21 14:05:07;;;;;;;0.35;0.30;;;12.00;99.90;;;;;;6272502;22;19997;-94
2021/05/21 14:07:37;;;;;;;1.20;0.32;;;12.10;99.90;;;;;;6271428;22;20000;-95
2021/05/21 14:12:52;;;;;;;0.43;0.17;;;12.10;99.90;;;;;;6246543;22;19999;-94
2021/05/21 14:16:12;;;;;;;0.15;0.15;;;12.00;99.90;;;;;;6271807;22;19985;-94
2021/05/21 14:24:26;;;;;;;0.30;0.30;;;11.90;99.90;;;;;;6176646;22;20084;-95
2021/05/21 14:41:06;;;;;;;5.95;2.70;;;11.40;99.90;;;;;;6181357;23;20009;-93
2021/05/21 14:43:53;;;;;;;8.15;3.42;;;11.40;99.90;;;;;;6155277;23;20033;-95
2021/05/21 14:46:22;;;;;;;2.45;1.40;;;11.40;99.90;;;;;;6155955;23;20022;-93
2021/05/21 14:48:54;;;;;;;3.60;2.20;;;11.30;99.90;;;;;;6157259;23;20021;-93
2021/05/21 14:51:25;;;;;;;2.13;1.05;;;11.30;99.90;;;;;;6188688;23;19999;-93
2021/05/21 14:53:52;;;;;;;5.10;2.35;;;11.30;99.90;;;;;;6186558;23;19997;-94
2021/05/21 14:56:21;;;;;;;8.30;4.40;;;11.30;99.90;;;;;;6187239;23;20009;-94
2021/05/21 14:58:58;;;;;;;4.35;2.90;;;11.30;99.90;;;;;;6189601;23;20001;-92
2021/05/21 15:01:27;;;;;;;4.60;1.85;;;11.20;99.90;;;;;;6188357;23;20017;-94
2021/05/21 15:03:54;;;;;;;2.72;2.05;;;11.20;99.90;;;;;;6188344;23;20073;-95
2021/05/21 15:06:22;;;;;;;3.50;3.20;;;11.20;99.90;;;;;;6188234;23;19997;-94
2021/05/21 15:09:01;;;;;;;5.05;3.33;;;11.20;99.90;;;;;;6188418;23;20049;-93
2021/05/21 15:11:30;;;;;;;2.40;2.13;;;11.20;99.90;;;;;;6188063;23;19990;-92
2021/05/21 15:13:59;;;;;;;1.33;1.23;;;11.20;99.90;;;;;;6188037;23;20012;-95
2021/05/21 15:25:00;;;;;;;1.13;0.40;;;11.10;99.90;;;;;;6163017;23;20022;-94
2021/05/21 15:27:32;;;;;;;0.85;0.40;;;11.10;99.90;;;;;;6124022;22;21292;-93
2021/05/21 15:30:03;;;;;;;1.55;0.50;;;11.10;99.90;;;;;;6248113;22;20024;-93
2021/05/21 15:32:32;;;;;;;0.93;0.50;;;11.10;99.90;;;;;;6247539;22;20017;-94
2021/05/21 15:35:04;;;;;;;0.80;0.60;;;11.10;99.90;;;;;;6247400;22;20012;-93
2021/05/21 15:37:54;;;;;;;0.65;0.40;;;11.10;99.90;;;;;;6247442;23;20015;-95
2021/05/21 15:40:32;;;;;;;1.70;0.70;;;11.10;99.90;;;;;;6247250;22;19984;-94
2021/05/21 15:48:51;;;;;;;;;;;;;;;;;;;;;
2021/05/21 15:52:02;;;;;;;1.77;0.60;;;11.10;99.90;;;;;;6273888;22;20013;-93
2021/05/21 15:57:18;;;;;;;2.65;0.70;;;11.10;99.90;;;;;;6274319;22;20019;-93
2021/05/21 15:59:53;;;;;;;2.80;0.57;;;11.10;99.90;;;;;;6246996;22;20004;-94
2021/05/21 16:02:29;;;;;;;0.52;0.50;;;11.10;99.90;;;;;;6248010;22;20012;-95
2021/05/21 16:04:58;;;;;;;1.92;0.60;;;11.10;99.90;;;;;;6248456;22;19992;-94
2021/05/21 16:07:30;;;;;;;0.98;0.82;;;11.10;99.90;;;;;;6239181;23;20019;-95
2021/05/21 16:10:15;;;;;;;1.58;0.88;;;11.10;99.90;;;;;;6240503;22;20000;-95
2021/05/21 16:53:39;;;;;;;2.80;1.10;;;10.90;99.90;;;;;;6196587;22;20031;-93
2021/05/21 16:56:12;;;;;;;1.05;0.90;;;10.90;99.90;;;;;;6219472;23;20308;-94
2021/05/21 16:58:40;;;;;;;2.20;1.02;;;11.00;99.90;;;;;;6218544;23;20031;-93
2021/05/21 17:01:07;;;;;;;1.58;1.40;;;11.00;99.90;;;;;;6218701;23;20491;-94
2021/05/21 17:03:42;;;;;;;3.97;1.88;;;11.10;99.90;;;;;;6219426;23;20023;-94
2021/05/21 17:06:09;;;;;;;2.67;2.25;;;11.10;99.90;;;;;;6219759;23;20004;-93
2021/05/21 17:08:35;;;;;;;3.35;2.47;;;11.10;99.90;;;;;;6219077;23;20012;-94
2021/05/21 17:11:04;;;;;;;2.67;2.00;;;11.10;99.90;;;;;;6219449;23;19996;-93
2021/05/21 17:13:35;;;;;;;3.65;2.40;;;11.20;99.90;;;;;;6218970;23;20007;-93
2021/05/21 17:42:57;;;;;;;3.85;2.33;;;11.40;99.90;;;;;;6181620;23;20055;-94
2021/05/21 17:45:54;;;;;;;4.40;2.00;;;11.50;99.90;;;;;;6156879;23;20005;-95
2021/05/21 17:48:34;;;;;;;1.88;1.63;;;11.60;99.90;;;;;;6155239;23;20009;-94
2021/05/21 17:54:01;;;;;;;3.45;2.58;;;11.60;99.90;;;;;;6213495;23;20025;-94
2021/05/21 18:02:21;;;;;;;3.17;1.90;;;11.70;99.90;;;;;;6224105;23;20019;-93
2021/05/21 18:05:09;;;;;;;4.03;1.70;;;11.70;99.90;;;;;;6185771;23;20013;-93
2021/05/21 18:07:50;;;;;;;2.92;1.70;;;11.60;99.90;;;;;;6205360;23;20004;-94
2021/05/21 18:10:31;;;;;;;4.63;1.75;;;11.60;99.90;;;;;;6216645;23;20004;-94
2021/05/21 18:24:06;;;;;;;3.25;1.60;;;11.50;99.90;;;;;;6244218;23;20031;-94
2021/05/21 18:45:22;;;;;;;3.05;2.00;;;11.60;99.90;;;;;;6247493;23;20000;-94
2021/05/21 18:48:08;;;;;;;4.32;2.08;;;11.60;99.90;;;;;;6219663;23;20028;-93
2021/05/21 19:04:23;;;;;;;4.03;2.10;;;11.30;99.90;;;;;;6246652;23;20088;-93
2021/05/21 19:09:41;;;;;;;3.42;2.78;;;11.30;99.90;;;;;;6247793;23;20026;-93
2021/05/21 19:12:24;;;;;;;3.95;2.15;;;11.30;99.90;;;;;;6219721;23;20004;-92
2021/05/21 19:17:28;;;;;;;3.38;2.67;;;11.30;99.90;;;;;;6248352;23;20004;-95
2021/05/21 19:19:59;;;;;;;3.92;2.03;;;11.30;99.90;;;;;;6221100;23;20012;-95
2021/05/21 19:22:30;;;;;;;2.58;1.95;;;11.20;99.90;;;;;;6220843;23;20008;-92
2021/05/21 19:25:05;;;;;;;3.78;1.98;;;11.20;99.90;;;;;;6246555;23;20110;-92
2021/05/21 19:27:41;;;;;;;2.85;2.00;;;11.20;99.90;;;;;;6256244;23;20008;-92
2021/05/21 19:30:17;;;;;;;2.75;2.08;;;11.20;99.90;;;;;;6222287;23;20008;-93
2021/05/21 20:12:15;;;;;;;0.40;0.40;;;10.70;99.90;;;;;;6246139;23;20015;-91
2021/05/21 20:14:40;;;;;;;;;;;10.70;99.90;;;;;;6220224;23;19997;-92
2021/05/21 20:17:17;;;;;;;0.93;0.60;;;10.70;99.90;;;;;;6245842;23;19938;-93
2021/05/21 20:19:56;;;;;;;0.90;0.68;;;10.70;99.90;;;;;;6242954;23;20004;-92
2021/05/21 20:22:24;;;;;;;0.82;0.65;;;10.60;99.90;;;;;;6219879;23;20022;-92
2021/05/21 20:24:51;;;;;;;0.60;0.50;;;10.60;99.90;;;;;;6245998;23;20000;-91
2021/05/21 20:31:02;;;;;;;0.30;0.30;;;10.60;99.90;;;;;;6215070;23;20011;-91
2021/05/21 20:34:04;;;;;;;;;;;10.60;99.90;;;;;;6246864;23;20043;-91
2021/05/21 20:39:34;;;;;;;4.00;0.60;;;10.50;99.90;;;;;;6153550;23;20498;-92
2021/05/21 21:01:48;;;;;;;0.40;0.40;;;10.20;99.90;;;;;;6223911;23;20019;-92
2021/05/21 21:07:11;;;;;;;0.85;0.50;;;10.20;99.90;;;;;;6247194;23;20039;-93
2021/05/21 21:09:49;;;;;;;0.70;0.65;;;10.10;99.90;;;;;;6219788;23;20428;-93
2021/05/21 21:12:31;;;;;;;1.00;0.80;;;10.10;99.90;;;;;;6223051;23;20008;-92
2021/05/21 21:23:23;;;;;;;0.98;0.80;;;10.00;99.90;;;;;;6247720;23;20008;-92
2021/05/21 21:42:34;;;;;;;2.05;0.80;;;9.90;99.90;;;;;;6144716;23;20081;-92
2021/05/21 21:45:14;;;;;;;1.15;0.70;;;9.80;99.90;;;;;;6148461;23;20002;-92
2021/05/21 21:53:20;;;;;;;1.65;0.60;;;9.80;99.90;;;;;;6124249;23;20021;-92
2021/05/21 21:55:58;;;;;;;2.10;0.75;;;9.70;99.90;;;;;;6100192;23;20009;-93
2021/05/21 21:58:36;;;;;;;1.00;0.60;;;9.70;99.90;;;;;;6100826;23;20041;-91
2021/05/21 22:09:03;;;;;;;2.45;0.60;;;9.60;99.90;;;;;;6234190;23;20138;-93
2021/05/21 22:21:49;;;;;;;0.65;0.50;;;9.60;99.90;;;;;;6235687;23;20016;-93
2021/05/21 22:24:35;;;;;;;1.25;0.50;;;9.50;99.90;;;;;;6222486;23;20466;-93
2021/05/21 22:27:03;;;;;;;0.63;0.50;;;9.50;99.90;;;;;;6222538;23;20435;-91
2021/05/21 22:29:33;;;;;;;0.88;0.50;;;9.50;99.90;;;;;;6222694;23;20008;-93
2021/05/21 22:32:02;;;;;;;0.20;0.20;;;9.40;99.90;;;;;;6223127;23;20012;-94
2021/05/21 22:34:28;;;;;;;0.40;0.40;;;9.40;99.90;;;;;;6220841;23;20057;-92
2021/05/21 22:36:54;;;;;;;1.10;0.28;;;9.40;99.90;;;;;;6222396;23;20012;-93
2021/05/21 22:39:20;;;;;;;0.22;0.15;;;9.30;99.90;;;;;;6221789;23;20008;-94
2021/05/21 22:41:54;;;;;;;0.10;0.10;;;9.30;99.90;;;;;;6196757;23;20071;-94
2021/05/21 22:44:25;;;;;;;0.82;0.40;;;9.30;99.90;;;;;;6220925;23;20011;-92
2021/05/21 22:47:18;;;;;;;0.32;0.32;;;9.20;99.90;;;;;;6197689;23;20004;-93
2021/05/21 22:49:43;;;;;;;0.20;0.20;;;9.20;99.90;;;;;;6248191;23;20007;-92
2021/05/21 22:52:11;;;;;;;0.90;0.35;;;9.10;99.90;;;;;;6222059;23;20004;-93
2021/05/21 22:54:37;;;;;;;0.52;0.25;;;9.10;99.90;;;;;;6221726;23;20016;-93
2021/05/21 22:57:10;;;;;;;0.30;0.30;;;9.10;99.90;;;;;;6247476;23;20008;-92
2021/05/21 22:59:40;;;;;;;0.20;0.20;;;9.10;99.90;;;;;;6222176;23;20372;-93
2021/05/21 23:02:06;;;;;;;0.43;0.30;;;9.00;99.90;;;;;;6221679;23;20000;-93
2021/05/21 23:04:37;;;;;;;0.40;0.30;;;9.00;99.90;;;;;;6221810;23;20100;-93
2021/05/21 23:07:03;;;;;;;0.30;0.30;;;9.00;99.90;;;;;;6193248;23;20004;-93
2021/05/21 23:09:32;;;;;;;0.38;0.30;;;8.90;99.90;;;;;;6246700;23;20008;-93
2021/05/21 23:12:07;;;;;;;0.57;0.35;;;8.90;99.90;;;;;;6222238;23;20050;-93
2021/05/21 23:14:52;;;;;;;1.60;0.35;;;8.90;99.90;;;;;;6248993;23;20012;-92
2021/05/21 23:17:19;;;;;;;0.88;0.22;;;8.90;99.90;;;;;;6220410;23;20040;-94
2021/05/21 23:19:52;;;;;;;0.80;0.40;;;8.90;99.90;;;;;;6248462;23;20054;-93
2021/05/21 23:22:21;;;;;;;0.80;0.30;;;8.80;99.90;;;;;;6198104;23;20018;-94
2021/05/21 23:24:53;;;;;;;0.20;0.20;;;8.80;99.90;;;;;;6197743;23;20309;-94
2021/05/21 23:27:39;;;;;;;;;;;;;;;;;;;;;
2021/05/21 23:30:18;;;;;;;0.47;0.47;;;8.80;99.90;;;;;;6249286;23;20079;-94
2021/05/21 23:32:57;;;;;;;0.52;0.20;;;8.80;99.90;;;;;;6222522;23;20331;-94
2021/05/21 23:35:35;;;;;;;1.75;0.20;;;8.70;99.90;;;;;;6249225;23;20015;-94
2021/05/21 23:41:25;;;;;;;0.85;0.47;;;8.60;99.90;;;;;;6249764;23;20466;-95
2021/05/21 23:44:05;;;;;;;1.85;0.30;;;8.60;99.90;;;;;;6220658;23;20091;-94
2021/05/21 23:46:40;;;;;;;0.77;0.20;;;8.60;99.90;;;;;;6224467;23;20073;-94
2021/05/21 23:49:16;;;;;;;0.35;0.10;;;8.50;99.90;;;;;;6223597;23;20007;-95
2021/05/21 23:59:16;;;;;;;;;;;;;;;;;;;;;
